Time;durP1;ratioP1;P1;durP2;ratioP2;P2;SDS_P1;SDS_P2;PMS_P1;PMS_P2;Temp;Humidity;BMP_temperature;BMP_pressure;BME280_temperature;BME280_humidity;BME280_pressure;Samples;Min_cycle;Max_cycle;Signal;HPM_P1;HPM_P2
2022/12/19 00:03:42;;;;;;;71.62;28.15;;;;;;;;;;4590908;76;44168;-78
2022/12/19 00:09:43;;;;;;;73.60;29.37;;;;;;;;;;4627118;76;44123;-79
2022/12/19 00:15:44;;;;;;;65.65;24.80;;;;;;;;;;4598690;76;43862;-79
2022/12/19 00:21:44;;;;;;;75.15;26.27;;;;;;;;;;4589300;76;43848;-79
2022/12/19 00:27:45;;;;;;;75.52;26.97;;;;;;;;;;4610895;76;44072;-80
2022/12/19 00:33:47;;;;;;;80.80;28.90;;;;;;;;;;4609672;76;43851;-80
2022/12/19 00:39:48;;;;;;;74.50;27.50;;;;;;;;;;4563974;76;44128;-79
2022/12/19 00:45:49;;;;;;;77.75;27.85;;;;;;;;;;4544972;76;43788;-78
2022/12/19 00:51:50;;;;;;;75.55;27.30;;;;;;;;;;4577667;76;44225;-78
2022/12/19 00:57:51;;;;;;;83.67;28.17;;;;;;;;;;4581749;76;42585;-77
2022/12/19 01:03:53;;;;;;;76.22;26.55;;;;;;;;;;4587810;76;43598;-78
2022/12/19 01:09:54;;;;;;;73.02;25.37;;;;;;;;;;4589065;76;44170;-78
2022/12/19 01:15:54;;;;;;;77.12;27.40;;;;;;;;;;4586080;77;43228;-77
2022/12/19 01:21:56;;;;;;;72.47;26.80;;;;;;;;;;4533551;77;44084;-78
2022/12/19 01:27:57;;;;;;;65.75;23.30;;;;;;;;;;4599860;76;43740;-78
2022/12/19 01:33:59;;;;;;;66.82;24.92;;;;;;;;;;4580626;76;43733;-79
2022/12/19 01:40:00;;;;;;;70.37;26.33;;;;;;;;;;4591003;76;43722;-78
2022/12/19 01:46:05;;;;;;;66.92;25.48;;;;;;;;;;4534841;76;44061;-79
2022/12/19 01:52:07;;;;;;;74.37;28.23;;;;;;;;;;4520122;77;44128;-79
2022/12/19 01:58:08;;;;;;;64.95;24.40;;;;;;;;;;4557795;77;43774;-79
2022/12/19 02:04:10;;;;;;;71.92;26.40;;;;;;;;;;4571220;77;43922;-78
2022/12/19 02:10:11;;;;;;;77.17;28.57;;;;;;;;;;4553080;77;43394;-78
2022/12/19 02:16:14;;;;;;;84.32;29.63;;;;;;;;;;4566728;77;43109;-77
2022/12/19 02:22:21;;;;;;;72.33;26.07;;;;;;;;;;4562344;77;43533;-78
2022/12/19 02:28:36;;;;;;;69.17;26.15;;;;;;;;;;4553267;77;43272;-79
2022/12/19 02:34:45;;;;;;;73.07;27.95;;;;;;;;;;4559416;76;44230;-78
2022/12/19 02:40:51;;;;;;;68.28;24.60;;;;;;;;;;4544676;77;43785;-79
2022/12/19 02:46:54;;;;;;;68.02;26.55;;;;;;;;;;4546796;76;44033;-78
2022/12/19 02:52:56;;;;;;;74.70;25.30;;;;;;;;;;4518039;76;28514;-80
2022/12/19 02:59:02;;;;;;;67.97;26.05;;;;;;;;;;4569339;76;43769;-78
2022/12/19 03:05:06;;;;;;;67.25;24.15;;;;;;;;;;4556386;76;43840;-78
2022/12/19 03:11:09;;;;;;;68.05;25.55;;;;;;;;;;4577374;76;43343;-79
2022/12/19 03:17:10;;;;;;;65.60;23.57;;;;;;;;;;4565577;76;43784;-78
2022/12/19 03:23:12;;;;;;;61.77;21.17;;;;;;;;;;4604215;76;44478;-79
2022/12/19 03:29:15;;;;;;;58.58;24.27;;;;;;;;;;4602957;76;44079;-78
2022/12/19 03:35:17;;;;;;;71.67;24.02;;;;;;;;;;4574056;76;44411;-78
2022/12/19 03:43:07;;;;;;;64.58;24.07;;;;;;;;;;4577988;76;43778;-78
2022/12/19 03:47:36;;;;;;;65.65;24.70;;;;;;;;;;4584500;76;28469;-78
2022/12/19 03:53:42;;;;;;;61.90;21.77;;;;;;;;;;4557672;76;44487;-80
2022/12/19 03:59:51;;;;;;;67.03;24.60;;;;;;;;;;4567429;76;43804;-80
2022/12/19 04:05:52;;;;;;;64.97;24.43;;;;;;;;;;4579328;76;43792;-85
2022/12/19 04:11:55;;;;;;;62.15;22.75;;;;;;;;;;4563698;76;44277;-85
2022/12/19 04:17:57;;;;;;;60.48;21.70;;;;;;;;;;4582028;76;44293;-84
2022/12/19 04:24:03;;;;;;;62.78;22.82;;;;;;;;;;4574969;76;44450;-84
2022/12/19 04:30:07;;;;;;;57.55;22.25;;;;;;;;;;4560770;76;44167;-85
2022/12/19 04:36:09;;;;;;;50.23;19.82;;;;;;;;;;4562205;76;28512;-84
2022/12/19 04:42:09;;;;;;;57.78;20.30;;;;;;;;;;4596192;76;44103;-84
2022/12/19 04:48:10;;;;;;;53.23;20.43;;;;;;;;;;4500683;76;44117;-83
2022/12/19 04:54:11;;;;;;;63.17;21.77;;;;;;;;;;4452851;78;44581;-81
2022/12/19 05:00:13;;;;;;;54.63;20.45;;;;;;;;;;4410550;79;44130;-84
2022/12/19 05:06:17;;;;;;;60.40;21.15;;;;;;;;;;4428432;78;44170;-85
2022/12/19 05:12:17;;;;;;;58.95;20.37;;;;;;;;;;4443249;77;28538;-85
2022/12/19 05:18:18;;;;;;;61.20;23.02;;;;;;;;;;4481568;78;44453;-85
2022/12/19 05:24:19;;;;;;;59.95;21.12;;;;;;;;;;4456009;78;44434;-85
2022/12/19 05:30:23;;;;;;;63.00;22.70;;;;;;;;;;4444488;80;44438;-87
2022/12/19 05:36:23;;;;;;;64.97;22.35;;;;;;;;;;4450999;79;44103;-86
2022/12/19 05:42:25;;;;;;;62.05;21.17;;;;;;;;;;4434453;79;44467;-85
2022/12/19 05:48:32;;;;;;;67.65;23.07;;;;;;;;;;4450289;77;43747;-86
2022/12/19 05:54:36;;;;;;;63.65;23.02;;;;;;;;;;4446653;78;43184;-84
2022/12/19 06:00:36;;;;;;;67.65;23.07;;;;;;;;;;4448776;79;43774;-83
2022/12/19 06:06:37;;;;;;;59.60;20.23;;;;;;;;;;4464001;78;44133;-82
2022/12/19 06:12:41;;;;;;;59.63;20.35;;;;;;;;;;4454951;78;44133;-81
2022/12/19 06:18:43;;;;;;;56.42;20.88;;;;;;;;;;4455624;78;28546;-81
2022/12/19 06:24:43;;;;;;;55.23;19.30;;;;;;;;;;4462460;79;44118;-77
2022/12/19 06:30:44;;;;;;;52.17;18.45;;;;;;;;;;4463239;78;44106;-77
2022/12/19 06:36:45;;;;;;;54.67;21.05;;;;;;;;;;4461254;79;44149;-78
2022/12/19 06:42:46;;;;;;;63.85;22.07;;;;;;;;;;4446298;78;44458;-78
2022/12/19 06:48:47;;;;;;;59.15;20.77;;;;;;;;;;4536241;77;44159;-77
2022/12/19 06:54:48;;;;;;;52.43;20.10;;;;;;;;;;4560608;76;44033;-78
2022/12/19 07:00:49;;;;;;;59.08;21.17;;;;;;;;;;4560926;76;44119;-76
2022/12/19 07:06:53;;;;;;;56.60;19.90;;;;;;;;;;4534805;76;44109;-76
2022/12/19 07:12:54;;;;;;;59.53;21.82;;;;;;;;;;4566380;75;28503;-77
2022/12/19 07:18:54;;;;;;;55.58;18.73;;;;;;;;;;4558968;77;44292;-76
2022/12/19 07:24:55;;;;;;;61.48;19.30;;;;;;;;;;4554962;76;44466;-77
2022/12/19 07:30:56;;;;;;;62.43;21.33;;;;;;;;;;4558538;76;44482;-78
2022/12/19 07:36:57;;;;;;;57.17;19.07;;;;;;;;;;4556450;77;44171;-78
2022/12/19 07:42:59;;;;;;;61.50;21.02;;;;;;;;;;4546109;76;44463;-84
2022/12/19 07:49:00;;;;;;;58.10;21.17;;;;;;;;;;4452355;77;44162;-84
2022/12/19 07:55:01;;;;;;;67.45;23.40;;;;;;;;;;4433590;79;43778;-81
2022/12/19 08:01:02;;;;;;;60.50;21.73;;;;;;;;;;4452607;78;44263;-81
2022/12/19 08:07:03;;;;;;;59.65;21.37;;;;;;;;;;4463065;79;44698;-85
2022/12/19 08:13:04;;;;;;;57.90;21.23;;;;;;;;;;4449897;79;44130;-82
2022/12/19 08:19:05;;;;;;;66.82;23.45;;;;;;;;;;4456211;78;43809;-82
2022/12/19 08:25:06;;;;;;;61.65;22.13;;;;;;;;;;4462740;79;44438;-84
2022/12/19 08:31:23;;;;;;;;;;;;;;;;;;;;;
2022/12/19 08:37:19;;;;;;;55.15;20.65;;;;;;;;;;4434299;79;44133;-85
2022/12/19 08:43:20;;;;;;;60.15;22.13;;;;;;;;;;4449833;79;44280;-80
2022/12/19 08:49:21;;;;;;;61.28;22.48;;;;;;;;;;4458967;78;44472;-81
2022/12/19 08:55:22;;;;;;;68.87;26.48;;;;;;;;;;4571173;76;43043;-80
2022/12/19 09:01:24;;;;;;;67.20;25.25;;;;;;;;;;4542530;76;43773;-80
2022/12/19 09:07:25;;;;;;;73.57;24.85;;;;;;;;;;4581921;76;44464;-81
2022/12/19 09:13:27;;;;;;;70.25;25.20;;;;;;;;;;4584612;76;43725;-80
2022/12/19 09:19:28;;;;;;;78.17;27.15;;;;;;;;;;4583182;76;43674;-79
2022/12/19 09:25:28;;;;;;;67.25;24.37;;;;;;;;;;4583183;76;43808;-78
2022/12/19 09:31:29;;;;;;;73.37;24.75;;;;;;;;;;4580951;76;44513;-79
2022/12/19 09:37:30;;;;;;;64.85;23.25;;;;;;;;;;4578511;76;43854;-82
2022/12/19 09:43:36;;;;;;;69.60;24.50;;;;;;;;;;4579268;76;44108;-82
2022/12/19 09:49:38;;;;;;;67.32;23.62;;;;;;;;;;4589436;76;43784;-82
2022/12/19 09:55:40;;;;;;;51.15;21.17;;;;;;;;;;4583066;76;44126;-82
2022/12/19 10:01:49;;;;;;;60.12;23.25;;;;;;;;;;4548882;76;44262;-84
2022/12/19 10:07:50;;;;;;;61.98;23.55;;;;;;;;;;4588293;76;44475;-82
2022/12/19 10:13:56;;;;;;;61.48;21.93;;;;;;;;;;4582660;76;44442;-80
2022/12/19 10:20:00;;;;;;;61.02;22.05;;;;;;;;;;4588650;76;44488;-78
2022/12/19 10:26:09;;;;;;;65.20;22.77;;;;;;;;;;4588742;77;43843;-78
2022/12/19 10:32:21;;;;;;;65.20;23.30;;;;;;;;;;4591939;76;43772;-84
2022/12/19 10:38:24;;;;;;;64.30;24.75;;;;;;;;;;4542731;76;43764;-87
2022/12/19 10:44:26;;;;;;;61.58;23.85;;;;;;;;;;4584954;76;44360;-85
2022/12/19 10:50:30;;;;;;;65.47;24.85;;;;;;;;;;4599339;76;43808;-85
2022/12/19 10:56:31;;;;;;;68.72;26.07;;;;;;;;;;4585104;76;43217;-84
2022/12/19 11:02:41;;;;;;;63.65;24.92;;;;;;;;;;4590807;76;43773;-82
2022/12/19 11:08:42;;;;;;;63.58;24.90;;;;;;;;;;4572751;76;43768;-81
2022/12/19 11:14:45;;;;;;;67.70;26.45;;;;;;;;;;4589074;76;43985;-83
2022/12/19 11:21:01;;;;;;;63.92;26.10;;;;;;;;;;4587652;76;42877;-89
2022/12/19 11:26:59;;;;;;;71.75;25.52;;;;;;;;;;4584199;76;28534;-82
2022/12/19 11:33:08;;;;;;;69.53;26.20;;;;;;;;;;4582488;76;44001;-84
2022/12/19 11:39:14;;;;;;;63.40;26.20;;;;;;;;;;4591512;76;43011;-83
2022/12/19 11:45:26;;;;;;;66.25;25.27;;;;;;;;;;4577480;77;43717;-83
2022/12/19 11:51:29;;;;;;;59.03;23.52;;;;;;;;;;4601377;76;44148;-84
2022/12/19 11:57:30;;;;;;;68.55;27.70;;;;;;;;;;4567983;76;44115;-84
2022/12/19 12:03:36;;;;;;;68.50;25.62;;;;;;;;;;4569985;76;42870;-86
2022/12/19 12:09:51;;;;;;;68.55;28.50;;;;;;;;;;4575203;76;44064;-87
2022/12/19 12:15:52;;;;;;;;;;;;;;;;;;4592902;76;28531;-86
2022/12/19 12:21:56;;;;;;;75.22;28.77;;;;;;;;;;4585935;76;44056;-86
2022/12/19 12:28:07;;;;;;;71.95;28.52;;;;;;;;;;4581136;76;28563;-84
2022/12/19 12:34:13;;;;;;;73.52;27.95;;;;;;;;;;4582170;76;44103;-86
2022/12/19 12:40:15;;;;;;;78.52;28.52;;;;;;;;;;4586067;76;43799;-89
2022/12/19 12:46:21;;;;;;;63.87;24.55;;;;;;;;;;4590673;76;43757;-88
2022/12/19 12:52:27;;;;;;;74.95;27.10;;;;;;;;;;4566712;76;43887;-86
2022/12/19 12:58:48;;;;;;;76.47;29.75;;;;;;;;;;4565359;76;43505;-89
2022/12/19 13:04:59;;;;;;;68.35;27.17;;;;;;;;;;4557446;76;44181;-86
2022/12/19 13:11:02;;;;;;;70.10;26.90;;;;;;;;;;4570706;76;43914;-86
2022/12/19 13:17:03;;;;;;;69.05;24.65;;;;;;;;;;4574104;76;43745;-87
2022/12/19 13:23:06;;;;;;;69.10;26.68;;;;;;;;;;4534133;78;44040;-88
2022/12/19 13:29:26;;;;;;;74.87;27.95;;;;;;;;;;4567830;76;44091;-86
2022/12/19 13:35:28;;;;;;;71.00;28.35;;;;;;;;;;4563408;76;44129;-84
2022/12/19 13:47:52;;;;;;;63.73;25.90;;;;;;;;;;4342338;80;42973;-82
2022/12/19 13:53:56;;;;;;;66.42;27.87;;;;;;;;;;4245757;82;43373;-82
2022/12/19 13:59:59;;;;;;;80.38;29.00;;;;;;;;;;4365830;80;43760;-86
2022/12/19 14:06:01;;;;;;;72.72;27.95;;;;;;;;;;4385970;79;44237;-85
2022/12/19 14:12:04;;;;;;;63.95;24.30;;;;;;;;;;4455778;78;43755;-85
2022/12/19 14:18:09;;;;;;;74.45;29.48;;;;;;;;;;4398348;78;44121;-86
2022/12/19 14:24:24;;;;;;;76.17;29.27;;;;;;;;;;4432947;78;44093;-86
2022/12/19 14:30:26;;;;;;;75.22;28.83;;;;;;;;;;4436249;78;43854;-85
2022/12/19 14:36:28;;;;;;;67.92;27.95;;;;;;;;;;4459211;78;44066;-84
2022/12/19 14:48:59;;;;;;;78.83;28.85;;;;;;;;;;4492143;76;28520;-87
2022/12/19 14:55:19;;;;;;;77.00;28.00;;;;;;;;;;4591122;76;43555;-85
2022/12/19 15:01:25;;;;;;;71.22;27.40;;;;;;;;;;4589400;76;44135;-89
2022/12/19 15:07:27;;;;;;;71.92;26.70;;;;;;;;;;4582978;77;43993;-90
2022/12/19 15:13:28;;;;;;;77.58;29.95;;;;;;;;;;4591806;77;43686;-85
2022/12/19 15:19:29;;;;;;;75.40;28.17;;;;;;;;;;4572516;76;44109;-81
2022/12/19 15:25:30;;;;;;;83.17;30.00;;;;;;;;;;4577342;76;43066;-83
2022/12/19 15:31:33;;;;;;;74.82;29.05;;;;;;;;;;4592843;76;44107;-77
2022/12/19 15:37:34;;;;;;;80.32;29.98;;;;;;;;;;4584661;77;43777;-81
2022/12/19 15:43:35;;;;;;;86.25;32.05;;;;;;;;;;4562380;76;43259;-77
2022/12/19 15:49:36;;;;;;;86.40;32.93;;;;;;;;;;4576734;76;43637;-78
2022/12/19 15:55:39;;;;;;;79.92;31.57;;;;;;;;;;4569990;76;43086;-79
2022/12/19 16:01:40;;;;;;;79.85;29.10;;;;;;;;;;4565062;76;43776;-77
2022/12/19 16:07:41;;;;;;;74.53;29.67;;;;;;;;;;4577654;76;44111;-78
2022/12/19 16:13:43;;;;;;;74.15;29.07;;;;;;;;;;4581323;76;44136;-83
2022/12/19 16:19:44;;;;;;;84.50;32.83;;;;;;;;;;4559979;76;43090;-80
2022/12/19 16:25:47;;;;;;;79.32;29.07;;;;;;;;;;4571881;76;43828;-82
2022/12/19 16:31:48;;;;;;;85.42;30.85;;;;;;;;;;4575952;76;43074;-83
2022/12/19 16:37:49;;;;;;;77.95;30.10;;;;;;;;;;4573501;76;43552;-81
2022/12/19 16:43:50;;;;;;;84.50;31.42;;;;;;;;;;4575506;76;43393;-80
2022/12/19 16:49:51;;;;;;;80.57;30.85;;;;;;;;;;4578719;76;42613;-79
2022/12/19 16:55:53;;;;;;;76.20;29.95;;;;;;;;;;4560304;76;43686;-81
2022/12/19 17:01:54;;;;;;;84.22;32.67;;;;;;;;;;4595240;76;43115;-79
2022/12/19 17:07:56;;;;;;;82.17;31.27;;;;;;;;;;4586344;77;43145;-80
2022/12/19 17:13:59;;;;;;;86.65;32.23;;;;;;;;;;4555764;76;43259;-86
2022/12/19 17:20:01;;;;;;;83.93;31.90;;;;;;;;;;4570027;76;28490;-82
2022/12/19 17:26:02;;;;;;;82.53;30.43;;;;;;;;;;4585540;76;43426;-86
2022/12/19 17:32:05;;;;;;;77.58;29.02;;;;;;;;;;4461497;77;43743;-83
2022/12/19 17:38:09;;;;;;;85.70;31.33;;;;;;;;;;4360292;79;43418;-84
2022/12/19 17:44:10;;;;;;;80.50;30.57;;;;;;;;;;4483366;78;42985;-82
2022/12/19 17:50:13;;;;;;;78.15;29.80;;;;;;;;;;4418748;77;43693;-89
2022/12/19 17:56:15;;;;;;;77.12;29.92;;;;;;;;;;4524578;76;43746;-85
2022/12/19 18:02:18;;;;;;;79.22;30.92;;;;;;;;;;4511688;76;43655;-83
2022/12/19 18:08:23;;;;;;;77.55;28.52;;;;;;;;;;4512016;77;43790;-84
2022/12/19 18:14:24;;;;;;;75.25;29.82;;;;;;;;;;4515252;77;44180;-85
2022/12/19 18:20:27;;;;;;;77.55;30.23;;;;;;;;;;4513216;76;43732;-86
2022/12/19 18:26:28;;;;;;;85.97;32.53;;;;;;;;;;4514364;76;43310;-89
2022/12/19 18:32:29;;;;;;;88.37;32.88;;;;;;;;;;4518453;76;44160;-87
2022/12/19 18:38:30;;;;;;;87.02;33.85;;;;;;;;;;4510685;77;43584;-85
2022/12/19 18:44:31;;;;;;;88.30;33.48;;;;;;;;;;4522425;76;44303;-86
2022/12/19 18:50:31;;;;;;;91.12;34.50;;;;;;;;;;4490028;75;44181;-85
2022/12/19 18:56:32;;;;;;;79.92;31.87;;;;;;;;;;4453575;78;43032;-83
2022/12/19 19:02:33;;;;;;;79.25;32.63;;;;;;;;;;4473361;78;43033;-86
2022/12/19 19:08:34;;;;;;;87.53;32.55;;;;;;;;;;4470866;77;43468;-78
2022/12/19 19:14:38;;;;;;;82.05;32.83;;;;;;;;;;4464968;77;43094;-79
2022/12/19 19:20:39;;;;;;;86.92;32.33;;;;;;;;;;4437039;78;43549;-79
2022/12/19 19:26:40;;;;;;;88.00;33.30;;;;;;;;;;4268863;81;44208;-80
2022/12/19 19:32:48;;;;;;;82.30;33.73;;;;;;;;;;4266080;80;43182;-80
2022/12/19 19:38:50;;;;;;;92.95;34.35;;;;;;;;;;4427319;78;44134;-79
2022/12/19 19:44:51;;;;;;;87.95;33.38;;;;;;;;;;4456953;78;44253;-78
2022/12/19 19:50:52;;;;;;;84.77;34.33;;;;;;;;;;4462687;77;43492;-79
2022/12/19 19:56:53;;;;;;;90.87;36.13;;;;;;;;;;4471786;78;44488;-78
2022/12/19 20:02:54;;;;;;;94.28;34.98;;;;;;;;;;4463448;77;44098;-78
2022/12/19 20:08:57;;;;;;;93.05;36.25;;;;;;;;;;4479729;78;44479;-78
2022/12/19 20:14:58;;;;;;;91.53;36.60;;;;;;;;;;4503194;78;44467;-78
2022/12/19 20:20:59;;;;;;;97.42;37.67;;;;;;;;;;4478921;78;44480;-77
2022/12/19 20:27:00;;;;;;;94.92;38.05;;;;;;;;;;4477837;78;44561;-77
2022/12/19 20:33:01;;;;;;;101.65;40.10;;;;;;;;;;4480621;78;43245;-78
2022/12/19 20:39:02;;;;;;;104.38;40.88;;;;;;;;;;4474501;78;44049;-78
2022/12/19 20:45:05;;;;;;;104.90;41.28;;;;;;;;;;4375105;79;44321;-77
2022/12/19 20:51:06;;;;;;;105.47;40.73;;;;;;;;;;4332838;80;44336;-77
2022/12/19 20:57:07;;;;;;;111.42;44.98;;;;;;;;;;4439188;78;44693;-79
2022/12/19 21:03:08;;;;;;;111.28;44.60;;;;;;;;;;4333068;80;44449;-79
2022/12/19 21:09:10;;;;;;;110.50;42.30;;;;;;;;;;4330581;80;44491;-76
2022/12/19 21:15:12;;;;;;;114.95;44.42;;;;;;;;;;4464330;77;44646;-75
2022/12/19 21:21:15;;;;;;;101.55;40.75;;;;;;;;;;4465898;77;43080;-76
2022/12/19 21:27:16;;;;;;;92.40;39.30;;;;;;;;;;4449081;78;44505;-76
2022/12/19 21:33:17;;;;;;;102.65;40.78;;;;;;;;;;4408497;79;44843;-76
2022/12/19 21:39:19;;;;;;;99.50;40.00;;;;;;;;;;4388478;79;43973;-77
2022/12/19 21:45:20;;;;;;;98.22;41.20;;;;;;;;;;4369426;79;43783;-77
2022/12/19 21:51:23;;;;;;;96.05;38.28;;;;;;;;;;4446013;78;44477;-77
2022/12/19 21:57:24;;;;;;;93.10;38.63;;;;;;;;;;4347931;79;44471;-77
2022/12/19 22:03:26;;;;;;;100.38;40.80;;;;;;;;;;4543706;76;43981;-77
2022/12/19 22:09:27;;;;;;;101.82;40.12;;;;;;;;;;4546349;76;43062;-77
2022/12/19 22:15:28;;;;;;;95.45;40.12;;;;;;;;;;4551676;76;44492;-82
2022/12/19 22:21:29;;;;;;;103.55;41.68;;;;;;;;;;4551259;76;43532;-75
2022/12/19 22:27:31;;;;;;;102.10;41.00;;;;;;;;;;4569097;77;43812;-76
2022/12/19 22:33:31;;;;;;;100.25;42.10;;;;;;;;;;4559545;76;43916;-76
2022/12/19 22:39:34;;;;;;;92.70;40.28;;;;;;;;;;4553315;76;44454;-77
2022/12/19 22:45:34;;;;;;;95.05;40.30;;;;;;;;;;4567622;76;43255;-77
2022/12/19 22:51:35;;;;;;;100.22;40.63;;;;;;;;;;4530759;76;43995;-77
2022/12/19 22:57:36;;;;;;;92.22;40.43;;;;;;;;;;4472778;78;44601;-77
2022/12/19 23:03:37;;;;;;;102.05;41.98;;;;;;;;;;4467441;78;43068;-76
2022/12/19 23:09:38;;;;;;;96.60;40.43;;;;;;;;;;4443311;78;43702;-77
2022/12/19 23:15:42;;;;;;;88.05;37.30;;;;;;;;;;4516413;78;44453;-76
2022/12/19 23:21:43;;;;;;;99.17;40.00;;;;;;;;;;4463234;78;43904;-76
2022/12/19 23:27:46;;;;;;;94.10;39.25;;;;;;;;;;4482031;78;44474;-77
2022/12/19 23:33:46;;;;;;;94.95;40.63;;;;;;;;;;4478301;78;43676;-76
2022/12/19 23:39:47;;;;;;;97.90;38.92;;;;;;;;;;4478575;78;43270;-77
2022/12/19 23:45:48;;;;;;;96.67;39.58;;;;;;;;;;4470121;78;43350;-77
2022/12/19 23:51:49;;;;;;;99.13;41.73;;;;;;;;;;4454738;78;43890;-77
2022/12/19 23:57:50;;;;;;;97.05;41.50;;;;;;;;;;4465522;78;43811;-76
